createdAt,value
2022-10-31T00:00:54.351Z,14.13
2022-10-31T00:05:55.755Z,14.82
2022-10-31T00:10:57.116Z,11.82
2022-10-31T00:15:58.507Z,14.75
2022-10-31T00:21:03.107Z,17.48
2022-10-31T00:26:04.858Z,12.43
2022-10-31T00:31:07.692Z,9.40
2022-10-31T00:36:17.279Z,11.20
2022-10-31T00:41:18.736Z,11.13
2022-10-31T00:46:20.098Z,9.75
2022-10-31T00:51:21.456Z,10.90
2022-10-31T00:56:22.814Z,8.68
2022-10-31T01:01:24.310Z,11.13
2022-10-31T01:06:25.739Z,9.00
2022-10-31T01:11:27.143Z,10.68
2022-10-31T01:16:30.256Z,9.52
2022-10-31T01:21:31.649Z,12.45
2022-10-31T01:26:33.323Z,11.13
2022-10-31T01:31:36.131Z,14.45
2022-10-31T01:36:38.376Z,9.68
2022-10-31T01:41:41.875Z,10.30
2022-10-31T01:47:00.690Z,9.20
2022-10-31T01:52:05.975Z,11.50
2022-10-31T01:57:07.899Z,10.73
2022-10-31T02:02:09.422Z,7.93
2022-10-31T02:07:32.227Z,10.50
2022-10-31T02:12:33.927Z,8.65
2022-10-31T02:17:35.296Z,10.68
2022-10-31T02:23:11.397Z,7.70
2022-10-31T02:28:37.383Z,10.38
2022-10-31T02:33:58.738Z,10.48
2022-10-31T02:39:14.011Z,12.07
2022-10-31T02:44:27.556Z,11.60
2022-10-31T02:49:34.714Z,8.45
2022-10-31T02:54:36.070Z,8.73
2022-10-31T02:59:45.851Z,9.23
2022-10-31T03:04:58.722Z,9.13
2022-10-31T03:10:21.123Z,11.55
2022-10-31T03:15:24.952Z,8.52
2022-10-31T03:20:30.732Z,10.23
2022-10-31T03:25:32.094Z,8.68
2022-10-31T03:30:34.319Z,8.70
2022-10-31T03:35:35.696Z,7.35
2022-10-31T03:40:37.470Z,6.43
2022-10-31T03:45:41.850Z,8.90
2022-10-31T03:51:22.886Z,8.82
2022-10-31T03:56:38.608Z,6.78
2022-10-31T04:01:42.240Z,8.50
2022-10-31T04:06:43.820Z,8.45
2022-10-31T04:11:48.008Z,9.07
2022-10-31T04:16:49.370Z,6.38
2022-10-31T04:21:50.728Z,7.43
2022-10-31T04:26:52.104Z,7.32
2022-10-31T04:31:53.457Z,7.15
2022-10-31T04:36:54.818Z,5.90
2022-10-31T04:41:56.187Z,8.05
2022-10-31T04:46:57.543Z,5.95
2022-10-31T04:51:58.926Z,6.95
2022-10-31T04:57:00.292Z,9.45
2022-10-31T05:02:01.776Z,6.45
2022-10-31T05:07:03.212Z,6.65
2022-10-31T05:12:04.635Z,7.38
2022-10-31T05:17:05.994Z,6.78
2022-10-31T05:22:07.358Z,7.47
2022-10-31T05:27:08.730Z,5.53
2022-10-31T05:32:10.090Z,7.53
2022-10-31T05:37:11.447Z,6.45
2022-10-31T05:42:12.815Z,7.75
2022-10-31T05:47:14.171Z,6.32
2022-10-31T05:52:15.553Z,7.32
2022-10-31T05:57:16.932Z,5.07
2022-10-31T06:02:18.295Z,5.85
2022-10-31T06:07:19.707Z,5.57
2022-10-31T06:12:21.064Z,4.32
2022-10-31T06:17:22.424Z,5.65
2022-10-31T06:22:23.792Z,5.22
2022-10-31T06:27:25.188Z,4.05
2022-10-31T06:32:26.579Z,3.88
2022-10-31T06:37:27.944Z,6.53
2022-10-31T06:42:29.323Z,4.60
2022-10-31T06:47:30.693Z,5.03
2022-10-31T06:52:32.056Z,4.22
2022-10-31T06:57:33.419Z,7.70
2022-10-31T07:02:34.838Z,6.93
2022-10-31T07:07:36.252Z,4.30
2022-10-31T07:12:37.626Z,4.53
2022-10-31T07:17:39.007Z,4.28
2022-10-31T07:22:40.411Z,5.30
2022-10-31T07:27:43.015Z,5.32
2022-10-31T07:32:48.539Z,5.18
2022-10-31T07:37:49.949Z,6.93
2022-10-31T07:42:52.343Z,4.93
2022-10-31T07:47:53.727Z,5.28
2022-10-31T07:53:05.378Z,5.53
2022-10-31T07:58:08.295Z,3.38
2022-10-31T08:03:14.369Z,3.33
2022-10-31T08:08:15.804Z,5.90
2022-10-31T08:13:17.187Z,3.75
2022-10-31T08:18:18.562Z,3.75
2022-10-31T08:23:19.960Z,4.90
2022-10-31T08:28:21.332Z,6.75
2022-10-31T08:33:22.692Z,6.90
2022-10-31T08:38:24.051Z,5.43
2022-10-31T08:43:25.455Z,4.22
2022-10-31T08:48:26.819Z,5.05
2022-10-31T08:53:28.214Z,6.65
2022-10-31T08:58:29.583Z,3.17
2022-10-31T09:03:31.699Z,4.85
2022-10-31T09:08:33.394Z,4.15
2022-10-31T09:13:40.249Z,4.90
2022-10-31T09:18:42.632Z,3.88
2022-10-31T09:23:44.016Z,4.30
2022-10-31T09:28:45.777Z,3.40
2022-10-31T09:33:47.163Z,5.07
2022-10-31T09:38:48.537Z,4.18
2022-10-31T09:44:14.775Z,6.22
2022-10-31T09:49:52.121Z,3.95
2022-10-31T09:54:55.660Z,4.80
2022-10-31T09:59:57.029Z,4.97
2022-10-31T10:05:12.306Z,7.05
2022-10-31T10:10:24.280Z,4.60
2022-10-31T10:15:56.444Z,4.20
2022-10-31T10:21:11.472Z,3.42
2022-10-31T10:26:18.176Z,7.67
2022-10-31T10:31:25.339Z,3.80
2022-10-31T10:36:35.450Z,4.13
2022-10-31T10:41:36.815Z,8.40
2022-10-31T10:47:07.171Z,4.13
2022-10-31T10:52:51.331Z,4.75
2022-10-31T10:57:54.892Z,4.15
2022-10-31T11:02:56.276Z,4.38
2022-10-31T11:07:57.639Z,3.63
2022-10-31T11:13:05.074Z,6.47
2022-10-31T11:18:06.451Z,4.38
2022-10-31T11:23:27.645Z,4.00
2022-10-31T11:28:30.328Z,6.00
2022-10-31T11:33:35.804Z,3.63
2022-10-31T11:38:41.678Z,4.68
2022-10-31T11:48:54.982Z,4.95
2022-10-31T11:54:01.856Z,5.03
2022-10-31T11:59:06.482Z,4.50
2022-10-31T12:04:11.406Z,4.30
2022-10-31T12:09:22.357Z,4.22
2022-10-31T12:14:35.859Z,4.60
2022-10-31T12:19:42.932Z,4.85
2022-10-31T12:24:55.877Z,5.25
2022-10-31T12:30:10.691Z,4.38
2022-10-31T12:35:33.539Z,4.63
2022-10-31T12:40:49.464Z,4.25
2022-10-31T12:45:55.602Z,3.53
2022-10-31T12:51:29.655Z,3.95
2022-10-31T12:56:43.632Z,4.72
2022-10-31T13:01:54.880Z,3.63
2022-10-31T13:06:59.168Z,5.35
2022-10-31T13:12:04.480Z,5.57
2022-10-31T13:17:05.927Z,4.93
2022-10-31T13:22:24.556Z,5.13
2022-10-31T13:27:36.846Z,3.72
2022-10-31T13:33:08.554Z,4.53
2022-10-31T13:38:14.851Z,4.05
2022-10-31T13:43:24.527Z,4.43
2022-10-31T13:48:25.716Z,3.92
2022-10-31T13:53:37.895Z,5.05
2022-10-31T13:58:39.267Z,7.97
2022-10-31T14:09:02.761Z,7.25
2022-10-31T14:14:04.139Z,5.00
2022-10-31T14:19:07.901Z,3.70
2022-10-31T14:24:17.759Z,4.05
2022-10-31T14:29:18.980Z,5.13
2022-10-31T14:34:36.488Z,3.42
2022-10-31T14:40:02.738Z,3.15
2022-10-31T14:45:33.480Z,3.45
2022-10-31T14:50:53.966Z,7.05
2022-10-31T14:55:56.115Z,6.60
2022-10-31T15:00:57.698Z,3.38
2022-10-31T15:06:13.407Z,5.07
2022-10-31T15:11:17.723Z,7.82
2022-10-31T15:16:21.919Z,4.22
2022-10-31T15:21:24.490Z,5.50
2022-10-31T15:26:41.335Z,5.10
2022-10-31T15:31:56.163Z,5.13
2022-10-31T15:36:57.522Z,4.93
2022-10-31T15:41:59.356Z,5.63
2022-10-31T15:47:20.041Z,6.30
2022-10-31T15:52:32.061Z,7.97
2022-10-31T15:57:33.621Z,4.70
2022-10-31T16:02:35.102Z,6.03
2022-10-31T16:07:36.519Z,5.85
2022-10-31T16:12:38.644Z,6.00
2022-10-31T16:17:41.851Z,5.95
2022-10-31T16:22:43.238Z,8.18
2022-10-31T16:27:55.238Z,5.15
2022-10-31T16:33:00.661Z,4.32
2022-10-31T16:38:02.479Z,8.63
2022-10-31T16:43:04.308Z,5.93
2022-10-31T16:48:09.751Z,5.90
2022-10-31T16:53:15.033Z,6.30
2022-10-31T16:58:24.764Z,4.28
2022-10-31T17:03:26.223Z,6.35
2022-10-31T17:08:27.599Z,6.25
2022-10-31T17:13:30.532Z,3.72
2022-10-31T17:18:32.386Z,6.57
2022-10-31T17:23:33.747Z,4.05
2022-10-31T17:28:35.111Z,5.07
2022-10-31T17:33:36.476Z,4.80
2022-10-31T17:38:38.304Z,8.68
2022-10-31T17:43:39.810Z,7.20
2022-10-31T17:48:41.652Z,5.20
2022-10-31T17:53:43.018Z,5.63
2022-10-31T17:58:44.657Z,4.88
2022-10-31T18:03:46.069Z,8.27
2022-10-31T18:08:47.555Z,6.15
2022-10-31T18:13:56.378Z,7.15
2022-10-31T18:19:01.908Z,7.25
2022-10-31T18:24:03.399Z,5.82
2022-10-31T18:29:04.772Z,5.68
2022-10-31T18:34:06.131Z,6.13
2022-10-31T18:39:07.490Z,6.85
2022-10-31T18:44:08.866Z,7.07
2022-10-31T18:49:10.585Z,7.78
2022-10-31T18:54:12.151Z,7.85
2022-10-31T18:59:13.541Z,9.15
2022-10-31T19:04:14.923Z,6.95
2022-10-31T19:09:16.283Z,7.97
2022-10-31T19:14:17.643Z,7.47
2022-10-31T19:19:20.425Z,7.95
2022-10-31T19:24:21.907Z,8.70
2022-10-31T19:29:23.290Z,8.63
2022-10-31T19:34:24.654Z,10.48
2022-10-31T19:39:27.056Z,9.30
2022-10-31T19:44:30.700Z,9.40
2022-10-31T19:49:32.103Z,11.80
2022-10-31T19:54:33.458Z,11.45
2022-10-31T19:59:39.156Z,11.38
2022-10-31T20:04:40.932Z,7.57
2022-10-31T20:09:45.024Z,9.52
2022-10-31T20:14:46.392Z,8.95
2022-10-31T20:19:47.750Z,10.77
2022-10-31T20:24:49.179Z,12.77
2022-10-31T20:29:50.539Z,9.13
2022-10-31T20:34:51.921Z,9.18
2022-10-31T20:39:55.721Z,7.00
2022-10-31T20:44:58.057Z,10.95
2022-10-31T20:49:59.419Z,9.40
2022-10-31T20:55:00.783Z,7.28
2022-10-31T21:00:02.376Z,7.60
2022-10-31T21:05:08.159Z,9.85
2022-10-31T21:10:14.634Z,8.85
2022-10-31T21:15:16.099Z,9.80
2022-10-31T21:20:17.452Z,7.60
2022-10-31T21:25:18.813Z,7.45
2022-10-31T21:30:20.223Z,7.57
2022-10-31T21:35:21.739Z,7.35
2022-10-31T21:40:23.106Z,14.93
2022-10-31T21:45:24.555Z,7.45
2022-10-31T21:50:26.030Z,9.02
2022-10-31T21:55:27.387Z,8.10
2022-10-31T22:00:28.750Z,11.15
2022-10-31T22:05:30.120Z,8.35
2022-10-31T22:10:31.479Z,9.60
2022-10-31T22:15:32.843Z,9.23
2022-10-31T22:20:34.210Z,11.23
2022-10-31T22:25:37.171Z,10.93
2022-10-31T22:30:38.632Z,8.90
2022-10-31T22:35:39.991Z,8.82
2022-10-31T22:40:41.357Z,7.88
2022-10-31T22:45:42.788Z,9.25
2022-10-31T22:50:44.162Z,10.18
2022-10-31T22:55:45.566Z,15.07
2022-10-31T23:00:46.948Z,10.00
2022-10-31T23:05:57.074Z,11.00
2022-10-31T23:10:58.431Z,9.25
2022-10-31T23:15:59.826Z,9.23
2022-10-31T23:21:01.569Z,13.18
2022-10-31T23:26:21.491Z,9.65
2022-10-31T23:31:22.850Z,9.25
2022-10-31T23:36:24.226Z,9.40
2022-10-31T23:41:25.583Z,9.73
2022-10-31T23:46:27.039Z,8.57
2022-10-31T23:51:28.567Z,9.70
2022-10-31T23:56:29.927Z,8.85
